Terminal Aerodrome Forecast
Issued by NWS

Home | Current Version | Previous Version | Graphics & Text | Print | Product List | Glossary On
Versions: 1 2 3 4 5 6 7 8 9 10 11 12 13 14 15 16 17 18 19 20 21 22
000
FTUS43 KBIS 272337
TAFMOT
TAF
KMOT 272337Z 2800/2824 09015KT P6SM VCTS SCT080CB SCT120
     FM280300 09007KT 4SM -SHRA OVC025
     FM280600 10006KT 2SM BR OVC009
     FM281500 27008KT P6SM BKN015
     FM281800 29009KT P6SM BKN050=

USA.gov is the U.S. government's official web portal to all federal, state and local government web resources and services.